Continental Highway — H9LY — position and weather

sailwx.info

Track history (hours):
 
Tides and Currents Weather Stations Pressure Air Temp Water Temp Dewpoint Dewpoint Depression Visibility Wind Speed Wind Dir Waves Ship Positions

Continental Highway

Last reported at 2014-Oct-20 17:29 UTC. Time now 2014-Nov-01 06:13 UTC.
Position N 25°31' E 121°05'.
Warning: this ship's position is 11 days out of date.

Length 199.9 m; beam 32.2 m.

Type: Cargo ship. MMSI: 351223000.

Date/timePositionNaut miles runAvg speedWind from/ knotsBaromVisibWave heightAir tempDewpointWater temp
2014-Oct-20 17:29N 25°31' E 121°05'2018.4
2014-Oct-20 16:24N 25°19' E 120°47'1517.8
2014-Oct-20 15:34N 25°10' E 120°34'1716.8
2014-Oct-20 14:33N 25°00' E 120°19'1616.4
2014-Oct-20 13:33N 24°51' E 120°04'1616.0
2014-Oct-20 12:33N 24°42' E 119°50'1716.9
2014-Oct-20 11:31N 24°31' E 119°34'1616.0
2014-Oct-20 10:33N 24°24' E 119°19'1616.4
2014-Oct-20 09:33N 24°14' E 119°05'1716.8
2014-Oct-20 08:33N 24°05' E 118°49'1616.4
2014-Oct-20 07:33N 23°53' E 118°37'1716.4
2014-Oct-20 06:32N 23°42' E 118°24'1616.7
2014-Oct-20 05:33N 23°31' E 118°10'1716.0
2014-Oct-20 04:28N 23°20' E 117°56'1415.7
2014-Oct-20 03:33N 23°12' E 117°42'1616.1
2014-Oct-20 02:33N 23°01' E 117°29'1716.5
2014-Oct-20 01:33N 22°49' E 117°16'17914.9
2014-Oct-19 13:33N 22°18' E 114°06'2 0.9
2014-Oct-19 11:18N 22°19' E 114°08'0 0.0
2014-Oct-19 10:30N 22°19' E 114°08'0 0.0
2014-Oct-19 07:30N 22°19' E 114°08'0 0.0
2014-Oct-19 06:30N 22°19' E 114°08'0 0.0
2014-Oct-19 05:30N 22°19' E 114°08'1 1.1
2014-Oct-19 04:33N 22°19' E 114°06'18 0.6
2014-Oct-17 22:33N 22°06' E 113°53'9 9.3
2014-Oct-17 21:33N 22°14' E 113°48'1212.4
2014-Oct-17 20:33N 22°26' E 113°45'1713.2
2014-Oct-17 19:18N 22°42' E 113°41'810.8
2014-Oct-17 18:32N 22°49' E 113°36'10 9.8
2014-Oct-17 17:33N 22°58' E 113°32'3 2.7
2014-Oct-17 16:30N 23°01' E 113°32'0 0.0
2014-Oct-17 15:24N 23°01' E 113°32'0 0.0
2014-Oct-17 14:18N 23°01' E 113°32'0 0.0
2014-Oct-17 13:12N 23°01' E 113°32'0 0.0
2014-Oct-17 12:24N 23°01' E 113°32'3 3.9
2014-Oct-17 11:33N 22°58' E 113°33'9 8.6
2014-Oct-17 10:33N 22°50' E 113°35'1110.4
2014-Oct-17 09:31N 22°40' E 113°41'1313.9
2014-Oct-17 08:33N 22°27' E 113°45'1312.6
2014-Oct-17 07:33N 22°15' E 113°48'9 9.1
2014-Oct-17 06:33N 22°06' E 113°49'4 3.1
2014-Oct-17 05:25N 22°04' E 113°52'0 0.0
2014-Oct-17 03:19N 22°04' E 113°52'0 0.0
2014-Oct-17 02:25N 22°04' E 113°52'0 0.0
2014-Oct-17 01:19N 22°04' E 113°52'0 0.0
2014-Oct-17 00:31N 22°04' E 113°52'5 4.8
2014-Oct-16 23:33N 21°60' E 113°53'34015.3
2014-Oct-16 01:23N 24°30' E 119°24'41516.4
2014-Oct-15 00:07N 30°39' E 122°57'1418.4
2014-Oct-14 23:22N 30°52' E 122°51'6114.8
2014-Oct-14 19:16N 31°18' E 121°47'810.3
2014-Oct-14 18:32N 31°21' E 121°39'0 0.0
2014-Oct-14 15:18N 31°21' E 121°39'0 0.0
2014-Oct-14 14:18N 31°21' E 121°39'0 0.0
2014-Oct-14 13:24N 31°21' E 121°39'0 0.0
2014-Oct-14 12:24N 31°21' E 121°39'0 0.0
2014-Oct-14 11:30N 31°21' E 121°39'0 0.0
2014-Oct-14 10:24N 31°21' E 121°39'0 0.0
2014-Oct-14 09:30N 31°21' E 121°39'0 0.0
2014-Oct-14 07:30N 31°21' E 121°39'0 0.0
2014-Oct-14 06:30N 31°21' E 121°39'1 1.0
2014-Oct-14 05:33N 31°21' E 121°40'3712.1
2014-Oct-14 02:31N 31°06' E 122°19'8 7.8
2014-Oct-14 01:33N 31°06' E 122°28'43615.0
2014-Oct-12 20:30N 38°19' E 121°30'16715.1
2014-Oct-12 09:24N 38°56' E 118°01'1012.1
2014-Oct-12 08:33N 38°58' E 117°48'1 1.3
2014-Oct-12 07:28N 38°59' E 117°47'0 0.0
2014-Oct-12 06:28N 38°59' E 117°47'0 0.0
2014-Oct-12 05:28N 38°59' E 117°47'0 0.0
2014-Oct-12 04:28N 38°59' E 117°47'0 0.0
2014-Oct-12 03:22N 38°59' E 117°47'0 0.0
2014-Oct-12 02:04N 38°59' E 117°47'0 0.1
2014-Oct-12 01:28N 38°59' E 117°47'0 0.0
2014-Oct-12 00:28N 38°59' E 117°47'0 0.0
2014-Oct-11 23:16N 38°59' E 117°47'0 0.1
2014-Oct-11 22:28N 38°59' E 117°47'0 0.0
2014-Oct-11 21:28N 38°59' E 117°47'0 0.0
2014-Oct-11 20:28N 38°59' E 117°47'0 0.0
2014-Oct-11 19:28N 38°59' E 117°47'0 0.0
2014-Oct-11 18:28N 38°59' E 117°47'0 0.0
2014-Oct-11 17:28N 38°59' E 117°47'0 0.0
2014-Oct-11 16:22N 38°59' E 117°47'0 0.0
2014-Oct-11 15:22N 38°59' E 117°47'1 1.0
2014-Oct-11 14:33N 38°59' E 117°48'15 4.8
2014-Oct-11 11:21N 38°57' E 118°07'0 0.0
2014-Oct-11 08:33N 38°57' E 118°07'8 0.8
2014-Oct-10 22:05N 38°54' E 118°17'2816.2
2014-Oct-10 20:21N 38°48' E 118°52'1417.6
2014-Oct-10 19:34N 38°48' E 119°10'2017.8
2014-Oct-10 18:26N 38°46' E 119°36'  
Track history (hours):
 
Tides and Currents Weather Stations Pressure Air Temp Water Temp Dewpoint Dewpoint Depression Visibility Wind Speed Wind Dir Waves Ship Positions

Continental Highway

Last reported at 2014-Oct-20 17:29 UTC. Time now 2014-Nov-01 06:13 UTC.
Position N 25°31' E 121°05'.
Warning: this ship's position is 11 days out of date.

Length 199.9 m; beam 32.2 m.

Type: Cargo ship. MMSI: 351223000.

Date/timePositionNaut miles runAvg speedWind from/ knotsBaromVisibWave heightAir tempDewpointWater temp
2014-Oct-20 17:29N 25°31' E 121°05'2018.4
2014-Oct-20 16:24N 25°19' E 120°47'1517.8
2014-Oct-20 15:34N 25°10' E 120°34'1716.8
2014-Oct-20 14:33N 25°00' E 120°19'1616.4
2014-Oct-20 13:33N 24°51' E 120°04'1616.0
2014-Oct-20 12:33N 24°42' E 119°50'1716.9
2014-Oct-20 11:31N 24°31' E 119°34'1616.0
2014-Oct-20 10:33N 24°24' E 119°19'1616.4
2014-Oct-20 09:33N 24°14' E 119°05'1716.8
2014-Oct-20 08:33N 24°05' E 118°49'1616.4
2014-Oct-20 07:33N 23°53' E 118°37'1716.4
2014-Oct-20 06:32N 23°42' E 118°24'1616.7
2014-Oct-20 05:33N 23°31' E 118°10'1716.0
2014-Oct-20 04:28N 23°20' E 117°56'1415.7
2014-Oct-20 03:33N 23°12' E 117°42'1616.1
2014-Oct-20 02:33N 23°01' E 117°29'1716.5
2014-Oct-20 01:33N 22°49' E 117°16'17914.9
2014-Oct-19 13:33N 22°18' E 114°06'2 0.9
2014-Oct-19 11:18N 22°19' E 114°08'0 0.0
2014-Oct-19 10:30N 22°19' E 114°08'0 0.0
2014-Oct-19 07:30N 22°19' E 114°08'0 0.0
2014-Oct-19 06:30N 22°19' E 114°08'0 0.0
2014-Oct-19 05:30N 22°19' E 114°08'1 1.1
2014-Oct-19 04:33N 22°19' E 114°06'18 0.6
2014-Oct-17 22:33N 22°06' E 113°53'9 9.3
2014-Oct-17 21:33N 22°14' E 113°48'1212.4
2014-Oct-17 20:33N 22°26' E 113°45'1713.2
2014-Oct-17 19:18N 22°42' E 113°41'810.8
2014-Oct-17 18:32N 22°49' E 113°36'10 9.8
2014-Oct-17 17:33N 22°58' E 113°32'3 2.7
2014-Oct-17 16:30N 23°01' E 113°32'0 0.0
2014-Oct-17 15:24N 23°01' E 113°32'0 0.0
2014-Oct-17 14:18N 23°01' E 113°32'0 0.0
2014-Oct-17 13:12N 23°01' E 113°32'0 0.0
2014-Oct-17 12:24N 23°01' E 113°32'3 3.9
2014-Oct-17 11:33N 22°58' E 113°33'9 8.6
2014-Oct-17 10:33N 22°50' E 113°35'1110.4
2014-Oct-17 09:31N 22°40' E 113°41'1313.9
2014-Oct-17 08:33N 22°27' E 113°45'1312.6
2014-Oct-17 07:33N 22°15' E 113°48'9 9.1
2014-Oct-17 06:33N 22°06' E 113°49'4 3.1
2014-Oct-17 05:25N 22°04' E 113°52'0 0.0
2014-Oct-17 03:19N 22°04' E 113°52'0 0.0
2014-Oct-17 02:25N 22°04' E 113°52'0 0.0
2014-Oct-17 01:19N 22°04' E 113°52'0 0.0
2014-Oct-17 00:31N 22°04' E 113°52'5 4.8
2014-Oct-16 23:33N 21°60' E 113°53'34015.3
2014-Oct-16 01:23N 24°30' E 119°24'41516.4
2014-Oct-15 00:07N 30°39' E 122°57'1418.4
2014-Oct-14 23:22N 30°52' E 122°51'6114.8
2014-Oct-14 19:16N 31°18' E 121°47'810.3
2014-Oct-14 18:32N 31°21' E 121°39'0 0.0
2014-Oct-14 15:18N 31°21' E 121°39'0 0.0
2014-Oct-14 14:18N 31°21' E 121°39'0 0.0
2014-Oct-14 13:24N 31°21' E 121°39'0 0.0
2014-Oct-14 12:24N 31°21' E 121°39'0 0.0
2014-Oct-14 11:30N 31°21' E 121°39'0 0.0
2014-Oct-14 10:24N 31°21' E 121°39'0 0.0
2014-Oct-14 09:30N 31°21' E 121°39'0 0.0
2014-Oct-14 07:30N 31°21' E 121°39'0 0.0
2014-Oct-14 06:30N 31°21' E 121°39'1 1.0
2014-Oct-14 05:33N 31°21' E 121°40'3712.1
2014-Oct-14 02:31N 31°06' E 122°19'8 7.8
2014-Oct-14 01:33N 31°06' E 122°28'43615.0
2014-Oct-12 20:30N 38°19' E 121°30'16715.1
2014-Oct-12 09:24N 38°56' E 118°01'1012.1
2014-Oct-12 08:33N 38°58' E 117°48'1 1.3
2014-Oct-12 07:28N 38°59' E 117°47'0 0.0
2014-Oct-12 06:28N 38°59' E 117°47'0 0.0
2014-Oct-12 05:28N 38°59' E 117°47'0 0.0
2014-Oct-12 04:28N 38°59' E 117°47'0 0.0
2014-Oct-12 03:22N 38°59' E 117°47'0 0.0
2014-Oct-12 02:04N 38°59' E 117°47'0 0.1
2014-Oct-12 01:28N 38°59' E 117°47'0 0.0
2014-Oct-12 00:28N 38°59' E 117°47'0 0.0
2014-Oct-11 23:16N 38°59' E 117°47'0 0.1
2014-Oct-11 22:28N 38°59' E 117°47'0 0.0
2014-Oct-11 21:28N 38°59' E 117°47'0 0.0
2014-Oct-11 20:28N 38°59' E 117°47'0 0.0
2014-Oct-11 19:28N 38°59' E 117°47'0 0.0
2014-Oct-11 18:28N 38°59' E 117°47'0 0.0
2014-Oct-11 17:28N 38°59' E 117°47'0 0.0
2014-Oct-11 16:22N 38°59' E 117°47'0 0.0
2014-Oct-11 15:22N 38°59' E 117°47'1 1.0
2014-Oct-11 14:33N 38°59' E 117°48'15 4.8
2014-Oct-11 11:21N 38°57' E 118°07'0 0.0
2014-Oct-11 08:33N 38°57' E 118°07'8 0.8
2014-Oct-10 22:05N 38°54' E 118°17'2816.2
2014-Oct-10 20:21N 38°48' E 118°52'1417.6
2014-Oct-10 19:34N 38°48' E 119°10'2017.8
2014-Oct-10 18:26N 38°46' E 119°36'  

Dump ship's entire track history